Time;durP1;ratioP1;P1;durP2;ratioP2;P2;SDS_P1;SDS_P2;PMS_P1;PMS_P2;Temp;Humidity;BMP_temperature;BMP_pressure;BME280_temperature;BME280_humidity;BME280_pressure;Samples;Min_cycle;Max_cycle;Signal;HPM_P1;HPM_P2
2022/12/06 07:06:40;;;;;;;14.40;9.20;;;;;;;5.03;100.00;101801.84;5276738;28;20400;-71
2022/12/06 07:09:11;;;;;;;12.98;10.95;;;;;;;5.01;100.00;101807.59;5278617;28;20047;-71
2022/12/06 07:11:43;;;;;;;12.50;9.18;;;;;;;4.94;100.00;101800.50;5254218;28;20408;-71
2022/12/06 07:14:14;;;;;;;11.65;8.27;;;;;;;4.91;100.00;101801.78;5275975;28;20033;-70
2022/12/06 07:16:45;;;;;;;11.70;7.57;;;;;;;4.94;100.00;101803.22;5269605;28;20049;-70
2022/12/06 07:19:19;;;;;;;12.77;7.95;;;;;;;4.95;100.00;101805.75;5271279;28;20025;-71
2022/12/06 07:21:56;;;;;;;12.15;9.68;;;;;;;4.87;100.00;101799.72;5275919;28;20395;-71
2022/12/06 07:24:28;;;;;;;11.50;7.82;;;;;;;4.89;100.00;101803.09;5259803;28;20088;-71
2022/12/06 07:26:59;;;;;;;11.63;8.20;;;;;;;4.87;100.00;101810.72;5251539;28;20018;-71
2022/12/06 07:29:30;;;;;;;9.18;7.05;;;;;;;4.83;100.00;101814.97;5262533;28;20078;-70
2022/12/06 07:32:01;;;;;;;10.82;7.28;;;;;;;4.84;100.00;101805.69;5278224;28;20037;-70
2022/12/06 07:34:33;;;;;;;9.98;7.30;;;;;;;4.92;100.00;101813.63;5267690;28;20028;-71
2022/12/06 07:37:07;;;;;;;9.90;6.85;;;;;;;4.93;100.00;101813.38;5262053;28;20029;-70
2022/12/06 07:39:39;;;;;;;11.30;6.78;;;;;;;4.97;100.00;101811.84;5277060;28;20040;-70
2022/12/06 07:44:59;;;;;;;10.18;6.80;;;;;;;4.99;100.00;101815.22;5253182;28;20033;-71
2022/12/06 07:47:33;;;;;;;10.43;7.30;;;;;;;5.06;100.00;101815.13;5257883;28;20093;-71
2022/12/06 07:50:10;;;;;;;10.77;6.63;;;;;;;4.90;100.00;101813.00;5264349;28;20025;-71
2022/12/06 07:52:42;;;;;;;10.27;7.30;;;;;;;4.86;100.00;101820.88;5259859;28;20055;-71
2022/12/06 07:55:14;;;;;;;9.75;7.55;;;;;;;4.85;100.00;101818.34;5243572;28;20025;-70
2022/12/06 07:57:45;;;;;;;11.38;8.02;;;;;;;4.86;100.00;101826.38;5257402;28;20037;-71
2022/12/06 08:00:17;;;;;;;10.20;7.63;;;;;;;4.75;100.00;101818.84;5276626;28;20052;-71
2022/12/06 08:02:48;;;;;;;10.73;6.75;;;;;;;4.83;100.00;101820.47;5262928;28;20025;-70
2022/12/06 08:05:19;;;;;;;9.57;7.05;;;;;;;4.84;100.00;101833.16;5256578;28;20511;-70
2022/12/06 08:07:51;;;;;;;10.05;6.28;;;;;;;4.85;100.00;101826.59;5258721;28;20029;-71
2022/12/06 08:10:32;;;;;;;11.40;7.13;;;;;;;4.94;100.00;101836.22;5259002;28;20023;-70
2022/12/06 08:13:03;;;;;;;9.60;6.95;;;;;;;4.98;100.00;101834.69;5264247;28;20025;-71
2022/12/06 08:15:43;;;;;;;22.65;15.50;;;;;;;4.96;100.00;101834.06;5257035;28;20013;-71
2022/12/06 08:18:15;;;;;;;10.15;7.15;;;;;;;4.96;100.00;101834.06;5253402;28;20033;-71
2022/12/06 08:20:46;;;;;;;12.45;8.00;;;;;;;4.96;100.00;101828.56;5257627;28;20083;-71
2022/12/06 08:23:18;;;;;;;8.68;6.55;;;;;;;4.95;100.00;101827.72;5245203;28;20036;-71
2022/12/06 08:26:05;;;;;;;11.05;7.20;;;;;;;5.03;100.00;101837.59;5233214;28;20026;-70
2022/12/06 08:28:37;;;;;;;9.40;7.03;;;;;;;4.97;100.00;101830.25;5232157;28;20090;-71
2022/12/06 08:31:14;;;;;;;8.50;7.63;;;;;;;5.06;100.00;101826.13;5241034;28;20075;-70
2022/12/06 08:33:46;;;;;;;10.18;7.40;;;;;;;5.06;100.00;101828.88;5245193;28;20050;-70
2022/12/06 08:36:20;;;;;;;10.93;8.23;;;;;;;5.06;100.00;101831.63;5240554;28;20068;-70
2022/12/06 08:38:52;;;;;;;11.93;7.75;;;;;;;5.07;100.00;101827.00;5243957;28;20103;-70
2022/12/06 08:44:15;;;;;;;7.93;6.28;;;;;;;5.13;100.00;101837.91;5254880;28;20034;-71
2022/12/06 08:46:47;;;;;;;8.25;6.38;;;;;;;5.11;100.00;101840.03;5252462;28;20507;-69
2022/12/06 08:49:19;;;;;;;11.65;6.50;;;;;;;5.19;100.00;101841.63;5247363;28;20074;-69
2022/12/06 08:51:51;;;;;;;8.77;6.72;;;;;;;5.10;100.00;101837.53;5241642;28;20112;-70
2022/12/06 08:54:23;;;;;;;7.97;5.75;;;;;;;5.14;100.00;101839.59;5237316;28;20028;-70
2022/12/06 08:56:55;;;;;;;8.73;6.20;;;;;;;5.09;100.00;101833.94;5236533;28;20061;-70
2022/12/06 08:59:26;;;;;;;17.20;13.48;;;;;;;5.13;100.00;101837.91;5246342;28;20499;-69
2022/12/06 09:01:58;;;;;;;8.65;6.00;;;;;;;5.10;100.00;101838.34;5241534;28;20033;-70
2022/12/06 09:04:32;;;;;;;10.98;6.47;;;;;;;5.01;100.00;101846.09;5240568;28;20097;-70
2022/12/06 09:07:03;;;;;;;10.32;5.63;;;;;;;4.88;100.00;101845.38;5243254;28;20025;-70
2022/12/06 09:09:35;;;;;;;6.82;5.43;;;;;;;4.92;100.00;101850.19;5255780;28;20021;-70
2022/12/06 09:12:06;;;;;;;7.05;6.05;;;;;;;5.01;100.00;101847.97;5237434;28;20039;-69
2022/12/06 09:14:38;;;;;;;9.93;6.45;;;;;;;4.99;100.00;101847.38;5239332;28;20053;-70
2022/12/06 09:17:09;;;;;;;8.68;6.10;;;;;;;4.96;100.00;101858.81;5253327;28;20024;-69
2022/12/06 09:19:41;;;;;;;10.73;6.35;;;;;;;5.05;100.00;101860.19;5239005;28;20380;-69
2022/12/06 09:22:12;;;;;;;10.00;5.88;;;;;;;5.39;100.00;101858.75;5235301;28;20021;-70
2022/12/06 09:24:43;;;;;;;13.15;6.80;;;;;;;5.40;100.00;101854.09;5241058;28;20025;-71
2022/12/06 09:27:15;;;;;;;10.55;5.63;;;;;;;5.73;100.00;101855.59;5249463;28;20040;-72
2022/12/06 09:29:46;;;;;;;7.80;5.85;;;;;;;6.10;100.00;101859.91;5235126;28;20044;-73
2022/12/06 09:32:17;;;;;;;7.55;5.05;;;;;;;6.30;100.00;101864.28;5241351;28;20025;-73
2022/12/06 09:34:50;;;;;;;7.50;5.35;;;;;;;6.27;100.00;101853.75;5229678;28;20021;-74
2022/12/06 09:37:21;;;;;;;5.47;4.88;;;;;;;6.64;100.00;101856.31;5246154;28;20100;-74
2022/12/06 09:40:00;;;;;;;10.65;5.60;;;;;;;6.62;100.00;101856.56;5245062;28;20492;-73
2022/12/06 09:42:49;;;;;;;7.13;5.68;;;;;;;6.55;100.00;101861.34;5238837;28;20022;-73
2022/12/06 09:45:32;;;;;;;6.55;5.63;;;;;;;6.58;100.00;101855.34;5253042;28;20033;-73
2022/12/06 09:48:09;;;;;;;6.57;4.57;;;;;;;6.78;100.00;101860.50;5239908;28;20028;-73
2022/12/06 09:51:16;;;;;;;5.65;5.05;;;;;;;6.82;100.00;101867.22;5235920;28;20370;-73
2022/12/06 09:54:35;;;;;;;5.28;4.43;;;;;;;6.85;100.00;101865.88;5243708;28;20072;-73
2022/12/06 09:57:17;;;;;;;4.13;3.72;;;;;;;6.81;100.00;101865.53;5238765;28;20388;-73
2022/12/06 10:00:10;;;;;;;5.20;4.00;;;;;;;6.83;100.00;101857.88;5242185;28;20521;-73
2022/12/06 10:03:18;;;;;;;6.93;5.13;;;;;;;6.88;100.00;101866.28;5235031;28;20033;-73
2022/12/06 10:06:01;;;;;;;8.18;4.35;;;;;;;6.93;100.00;101865.56;5230036;28;20050;-73
2022/12/06 10:08:50;;;;;;;6.07;3.65;;;;;;;6.90;100.00;101858.59;5235557;28;20488;-73
2022/12/06 10:11:29;;;;;;;5.32;3.75;;;;;;;6.98;100.00;101857.41;5239887;28;20029;-73
2022/12/06 10:14:11;;;;;;;4.70;4.20;;;;;;;6.95;100.00;101855.09;5236329;28;20543;-72
2022/12/06 10:17:20;;;;;;;9.07;5.15;;;;;;;6.93;100.00;101847.09;5239661;28;20124;-73
2022/12/06 10:20:28;;;;;;;4.95;4.45;;;;;;;7.03;100.00;101840.09;5248604;28;20364;-74
2022/12/06 10:23:14;;;;;;;9.60;4.70;;;;;;;6.95;100.00;101844.94;5242483;28;20017;-73
2022/12/06 10:25:56;;;;;;;;;;;;;;;6.96;100.00;101852.09;5234965;28;20041;-73
2022/12/06 10:28:45;;;;;;;6.28;4.25;;;;;;;6.97;100.00;101842.75;5240817;28;19917;-75
2022/12/06 10:31:31;;;;;;;29.70;26.63;;;;;;;7.12;100.00;101838.66;5242893;28;20032;-74
2022/12/06 10:34:20;;;;;;;;;;;;;;;7.02;100.00;101832.91;5240948;28;20440;-73
2022/12/06 10:37:22;;;;;;;6.93;4.45;;;;;;;6.78;98.95;101835.69;5246324;28;19929;-72
2022/12/06 10:40:15;;;;;;;6.28;4.32;;;;;;;6.60;99.67;101842.16;5238205;28;20112;-72
2022/12/06 10:42:57;;;;;;;5.55;4.28;;;;;;;6.30;98.72;101839.50;5242107;28;20120;-81
2022/12/06 10:49:05;;;;;;;6.15;4.90;;;;;;;5.89;100.00;101839.22;5232620;28;20049;-73
2022/12/06 10:51:49;;;;;;;6.18;4.75;;;;;;;5.83;100.00;101847.59;5244425;28;20025;-73
2022/12/06 10:54:49;;;;;;;17.50;4.90;;;;;;;5.83;100.00;101848.44;5233106;28;20029;-72
2022/12/06 10:57:29;;;;;;;6.30;4.50;;;;;;;5.66;100.00;101848.25;5245135;28;20029;-73
2022/12/06 11:00:05;;;;;;;32.80;25.02;;;;;;;5.72;100.00;101842.88;5241102;28;20022;-73
2022/12/06 11:03:14;;;;;;;9.75;7.28;;;;;;;5.81;100.00;101841.50;5241344;28;20029;-72
2022/12/06 11:06:11;;;;;;;8.23;4.30;;;;;;;5.74;100.00;101846.25;5236208;28;20507;-73
2022/12/06 11:08:48;;;;;;;5.78;3.58;;;;;;;5.82;100.00;101849.50;5232866;28;20402;-80
2022/12/06 11:11:28;;;;;;;4.30;3.40;;;;;;;5.94;100.00;101849.59;5243961;28;20365;-76
2022/12/06 11:14:19;;;;;;;6.10;3.03;;;;;;;6.07;100.00;101843.88;5239578;28;20580;-76
2022/12/06 11:17:16;;;;;;;5.90;3.95;;;;;;;6.08;100.00;101839.19;5243808;28;20032;-76
2022/12/06 11:19:52;;;;;;;5.57;3.55;;;;;;;6.08;100.00;101837.31;5241625;28;20033;-76
2022/12/06 11:22:43;;;;;;;4.05;3.65;;;;;;;6.13;99.73;101835.75;5240973;28;20040;-75
2022/12/06 11:25:49;;;;;;;4.28;3.22;;;;;;;6.23;100.00;101838.75;5246505;28;20030;-73
2022/12/06 11:28:48;;;;;;;6.18;3.53;;;;;;;6.27;98.17;101834.47;5236887;28;20025;-73
2022/12/06 11:31:27;;;;;;;28.23;22.83;;;;;;;6.29;98.28;101833.16;5250021;28;20074;-71
2022/12/06 11:33:58;;;;;;;9.30;5.53;;;;;;;6.40;98.76;101831.47;5242849;28;20036;-73
2022/12/06 11:36:30;;;;;;;8.38;3.25;;;;;;;6.27;96.07;101832.53;5240074;28;20472;-73
2022/12/06 11:39:03;;;;;;;4.35;3.58;;;;;;;6.31;97.46;101831.00;5247097;28;20113;-72
2022/12/06 11:41:36;;;;;;;7.80;3.60;;;;;;;6.34;96.75;101826.94;5240288;28;20021;-73
2022/12/06 11:44:14;;;;;;;25.73;20.48;;;;;;;6.47;97.18;101818.44;5256886;28;20464;-72
2022/12/06 11:46:52;;;;;;;4.75;3.63;;;;;;;6.60;96.96;101819.28;5241942;28;20137;-73
2022/12/06 11:49:37;;;;;;;5.10;3.40;;;;;;;6.54;93.96;101810.03;5224444;28;20025;-73
2022/12/06 11:52:40;;;;;;;6.60;3.60;;;;;;;6.51;92.77;101805.84;5243514;28;20103;-73
2022/12/06 11:55:22;;;;;;;5.35;3.60;;;;;;;6.55;93.21;101802.63;5248158;28;20039;-73
2022/12/06 11:58:10;;;;;;;4.45;3.58;;;;;;;6.71;93.98;101805.47;5248886;28;20037;-73
2022/12/06 12:01:13;;;;;;;8.32;3.00;;;;;;;6.78;93.72;101791.59;5249567;28;20021;-74
2022/12/06 12:03:47;;;;;;;18.85;11.38;;;;;;;6.60;88.12;101797.25;5242544;28;20115;-73
2022/12/06 12:06:25;;;;;;;17.15;13.15;;;;;;;6.56;88.17;101794.09;5245896;28;20492;-75
2022/12/06 12:09:05;;;;;;;4.60;3.13;;;;;;;6.60;88.67;101794.47;5245699;28;20372;-74
2022/12/06 12:11:40;;;;;;;8.43;3.10;;;;;;;6.53;88.65;101787.16;5242403;28;20020;-74
2022/12/06 12:14:29;;;;;;;8.90;3.53;;;;;;;6.56;90.31;101785.84;5245688;28;20079;-73
2022/12/06 12:17:02;;;;;;;5.28;3.72;;;;;;;6.49;89.79;101785.09;5233890;28;20130;-73
2022/12/06 12:19:43;;;;;;;5.90;3.53;;;;;;;6.52;89.49;101779.97;5244113;28;20053;-74
2022/12/06 12:22:30;;;;;;;6.20;3.10;;;;;;;6.58;88.64;101785.59;5258880;28;20114;-73
2022/12/06 12:25:27;;;;;;;4.50;2.50;;;;;;;6.52;87.56;101776.38;5243882;28;20022;-73
2022/12/06 12:28:18;;;;;;;;;;;;;;;6.63;88.45;101774.69;5242419;28;20018;-74
2022/12/06 12:30:54;;;;;;;46.85;37.95;;;;;;;6.66;88.17;101765.94;5241812;28;19914;-73
2022/12/06 12:33:27;;;;;;;8.10;6.40;;;;;;;6.73;86.74;101767.50;5247958;28;20029;-74
2022/12/06 12:36:01;;;;;;;7.65;4.70;;;;;;;6.75;85.54;101756.22;5238962;28;20040;-74
2022/12/06 12:38:37;;;;;;;6.30;3.08;;;;;;;6.90;88.76;101767.59;5246526;28;20029;-71
2022/12/06 12:41:26;;;;;;;8.88;4.68;;;;;;;7.16;91.34;101763.44;5238175;28;20061;-71
2022/12/06 12:44:05;;;;;;;5.25;2.90;;;;;;;6.95;85.51;101767.72;5236376;28;20022;-75
2022/12/06 12:46:36;;;;;;;7.68;3.03;;;;;;;6.89;84.31;101768.66;5240717;28;20048;-78
2022/12/06 12:49:23;;;;;;;4.63;2.80;;;;;;;6.89;83.49;101760.38;5248047;28;20033;-76
2022/12/06 12:51:55;;;;;;;3.63;2.78;;;;;;;6.78;84.22;101758.50;5236979;28;20112;-73
2022/12/06 12:54:32;;;;;;;6.22;3.15;;;;;;;6.74;83.78;101754.53;5243546;28;20531;-76
2022/12/06 12:57:11;;;;;;;9.95;4.38;;;;;;;6.76;83.07;101763.41;5248691;28;20037;-73
2022/12/06 12:59:44;;;;;;;10.02;3.88;;;;;;;7.02;87.15;101752.94;5238344;28;20021;-75
2022/12/06 13:02:29;;;;;;;8.77;4.50;;;;;;;7.39;91.18;101756.19;5247864;28;20022;-76
2022/12/06 13:05:09;;;;;;;5.57;2.90;;;;;;;7.19;82.36;101751.91;5238057;28;20084;-77
2022/12/06 13:07:42;;;;;;;6.03;3.50;;;;;;;7.31;84.33;101753.78;5251023;28;20382;-77
2022/12/06 13:10:34;;;;;;;10.02;4.38;;;;;;;7.55;86.90;101755.38;5250181;28;20031;-77
2022/12/06 13:13:17;;;;;;;5.75;3.50;;;;;;;7.84;87.77;101752.56;5235374;28;20026;-77
2022/12/06 13:15:55;;;;;;;5.88;3.05;;;;;;;7.79;83.35;101756.06;5246573;28;20108;-78
2022/12/06 13:18:32;;;;;;;10.45;5.55;;;;;;;8.03;85.52;101753.19;5228859;28;20244;-78
2022/12/06 13:21:32;;;;;;;5.65;3.63;;;;;;;8.20;86.24;101751.25;5232339;28;20037;-78
2022/12/06 13:24:03;;;;;;;6.15;3.05;;;;;;;8.10;82.40;101751.06;5255497;28;20056;-78
2022/12/06 13:26:58;;;;;;;3.60;2.60;;;;;;;8.04;82.59;101752.09;5229279;28;20030;-77
2022/12/06 13:29:38;;;;;;;5.20;2.63;;;;;;;7.77;79.24;101752.75;5252937;28;20040;-77
2022/12/06 13:32:15;;;;;;;6.57;3.28;;;;;;;8.02;82.83;101749.56;5234483;28;20021;-80
2022/12/06 13:34:54;;;;;;;5.68;2.70;;;;;;;7.94;81.87;101749.16;5242336;28;20091;-77
2022/12/06 13:38:05;;;;;;;4.38;2.50;;;;;;;8.06;82.59;101744.41;5235044;28;20080;-81
2022/12/06 13:41:03;;;;;;;5.00;2.63;;;;;;;7.91;82.20;101735.84;5219375;28;20107;-76
2022/12/06 13:43:34;;;;;;;5.70;3.60;;;;;;;7.83;79.97;101739.88;5248249;28;20369;-80
2022/12/06 13:46:05;;;;;;;4.10;2.47;;;;;;;7.90;80.59;101739.69;5241410;28;20037;-77
2022/12/06 13:48:50;;;;;;;8.68;4.47;;;;;;;7.91;79.96;101731.16;5252105;28;20066;-80
2022/12/06 13:51:34;;;;;;;8.27;4.72;;;;;;;7.88;81.36;101730.84;5233818;28;20087;-80
2022/12/06 13:54:05;;;;;;;6.03;2.90;;;;;;;7.72;80.78;101733.34;5240660;28;20037;-76
2022/12/06 13:56:39;;;;;;;4.82;2.42;;;;;;;7.82;81.10;101728.00;5242270;28;20033;-77
2022/12/06 13:59:14;;;;;;;5.35;2.83;;;;;;;7.98;81.56;101725.47;5231629;28;20049;-82
2022/12/06 14:01:57;;;;;;;4.35;3.45;;;;;;;7.85;79.59;101726.66;5236764;28;20559;-80
2022/12/06 14:04:31;;;;;;;5.10;3.05;;;;;;;7.97;80.74;101715.50;5237026;28;20515;-78
2022/12/06 14:07:06;;;;;;;7.20;3.90;;;;;;;7.94;80.58;101725.13;5241512;28;20419;-76
2022/12/06 14:09:42;;;;;;;5.97;4.22;;;;;;;8.12;81.78;101726.81;5238762;28;20021;-78
2022/12/06 14:12:27;;;;;;;7.50;4.65;;;;;;;8.05;80.80;101721.47;5247741;28;20442;-80
2022/12/06 14:15:16;;;;;;;5.47;3.42;;;;;;;8.11;82.72;101729.84;5244900;28;20033;-80
2022/12/06 14:17:48;;;;;;;8.43;3.08;;;;;;;8.07;81.44;101726.72;5238591;28;20099;-82
2022/12/06 14:20:23;;;;;;;4.45;3.08;;;;;;;7.90;80.56;101725.88;5240796;28;20041;-86
2022/12/06 14:22:55;;;;;;;11.13;6.38;;;;;;;7.49;77.97;101730.66;5242989;28;20029;-80
2022/12/06 14:25:28;;;;;;;5.88;5.10;;;;;;;7.23;79.61;101724.66;5232185;28;20117;-81
2022/12/06 14:28:11;;;;;;;4.50;3.95;;;;;;;7.19;80.54;101723.50;5239309;28;20094;-82
2022/12/06 14:30:44;;;;;;;4.60;3.17;;;;;;;7.15;81.66;101717.63;5251520;28;20444;-81
2022/12/06 14:33:20;;;;;;;10.75;6.88;;;;;;;7.21;82.46;101718.56;5242458;28;20484;-81
2022/12/06 14:35:53;;;;;;;6.50;4.18;;;;;;;7.24;82.72;101720.00;5234638;28;20060;-82
2022/12/06 14:38:29;;;;;;;5.60;3.35;;;;;;;7.19;83.41;101716.06;5253988;28;20030;-82
2022/12/06 14:43:51;;;;;;;3.88;3.33;;;;;;;7.14;82.87;101717.88;5255753;28;20087;-79
2022/12/06 14:46:22;;;;;;;5.22;4.07;;;;;;;7.14;83.15;101710.44;5255302;28;20369;-80
2022/12/06 14:51:43;;;;;;;11.80;10.45;;;;;;;7.10;82.81;101695.44;5265143;28;20033;-79
2022/12/06 14:54:17;;;;;;;7.15;4.78;;;;;;;7.21;83.82;101702.03;5240502;28;20025;-76
2022/12/06 14:56:48;;;;;;;5.10;3.65;;;;;;;7.10;83.61;101703.72;5244076;28;20029;-78
2022/12/06 14:59:23;;;;;;;4.07;3.10;;;;;;;7.10;84.19;101698.19;5254759;28;20031;-79
2022/12/06 15:01:55;;;;;;;10.45;4.38;;;;;;;7.17;84.91;101698.06;5247626;28;20050;-78
2022/12/06 15:04:38;;;;;;;7.10;3.42;;;;;;;7.16;84.99;101697.25;5247492;28;20041;-79
2022/12/06 15:07:30;;;;;;;7.70;3.22;;;;;;;7.18;84.33;101697.84;5250855;28;20052;-80
2022/12/06 15:10:22;;;;;;;5.05;3.20;;;;;;;7.09;84.84;101692.94;5239078;28;20022;-78
2022/12/06 15:12:54;;;;;;;4.88;3.60;;;;;;;7.05;85.08;101689.81;5233837;28;20116;-76
2022/12/06 15:15:34;;;;;;;5.10;3.65;;;;;;;7.02;85.13;101690.31;5234670;28;20021;-78
2022/12/06 15:18:15;;;;;;;5.80;3.20;;;;;;;6.94;86.55;101693.47;5246233;28;20037;-78
2022/12/06 15:20:48;;;;;;;5.43;3.55;;;;;;;6.91;86.10;101694.81;5237861;28;20103;-78
2022/12/06 15:23:37;;;;;;;7.00;3.10;;;;;;;6.93;86.35;101686.28;5244308;28;20472;-79
2022/12/06 15:26:11;;;;;;;8.35;6.82;;;;;;;6.96;86.75;101691.31;5262710;28;20053;-81
2022/12/06 15:28:46;;;;;;;3.58;3.00;;;;;;;6.82;87.13;101696.25;5243977;28;20116;-79
2022/12/06 15:31:19;;;;;;;5.67;4.27;;;;;;;6.90;87.57;101695.91;5246441;28;20109;-80
2022/12/06 15:33:51;;;;;;;4.50;3.22;;;;;;;6.87;87.09;101701.88;5244645;28;20052;-78
2022/12/06 15:36:26;;;;;;;7.35;2.97;;;;;;;6.87;88.25;101704.63;5237840;28;20028;-78
2022/12/06 15:38:57;;;;;;;22.67;16.88;;;;;;;6.89;87.68;101696.97;5253189;28;20086;-77
2022/12/06 15:41:29;;;;;;;7.53;6.03;;;;;;;6.83;87.73;101699.88;5246426;28;20464;-80
2022/12/06 15:44:00;;;;;;;7.05;3.50;;;;;;;6.75;88.28;101701.09;5250859;28;20028;-81
2022/12/06 15:46:31;;;;;;;5.20;4.50;;;;;;;6.89;89.04;101696.13;5260191;28;20029;-79
2022/12/06 15:49:02;;;;;;;6.32;4.63;;;;;;;6.95;88.65;101697.91;5251456;28;20025;-79
2022/12/06 15:51:34;;;;;;;5.90;5.35;;;;;;;6.83;88.22;101692.44;5242124;28;20077;-80
2022/12/06 15:54:06;;;;;;;6.47;4.10;;;;;;;6.95;88.85;101693.25;5249333;28;20056;-82
2022/12/06 15:56:37;;;;;;;4.32;3.47;;;;;;;6.91;89.23;101692.03;5246675;28;20033;-79
2022/12/06 15:59:09;;;;;;;5.55;3.92;;;;;;;6.87;89.23;101698.28;5241346;28;20037;-80
2022/12/06 16:01:45;;;;;;;10.13;3.85;;;;;;;6.82;88.84;101710.03;5254793;28;20048;-80
2022/12/06 16:04:20;;;;;;;5.95;3.65;;;;;;;6.80;88.75;101703.97;5250505;28;20032;-81
2022/12/06 16:06:51;;;;;;;9.35;3.83;;;;;;;6.83;89.09;101697.94;5245255;28;20096;-80
2022/12/06 16:09:23;;;;;;;4.75;3.42;;;;;;;6.84;88.59;101699.63;5249839;28;20093;-81
2022/12/06 16:11:55;;;;;;;4.25;3.63;;;;;;;6.85;89.62;101695.78;5247255;28;20029;-79
2022/12/06 16:14:26;;;;;;;8.90;5.28;;;;;;;6.81;90.17;101710.31;5252232;28;20025;-81
2022/12/06 16:16:58;;;;;;;5.70;3.97;;;;;;;6.73;91.06;101701.31;5253201;28;20415;-81
2022/12/06 16:20:29;;;;;;;12.15;6.85;;;;;;;6.72;91.60;101701.56;5236441;28;20381;-81
2022/12/06 16:23:59;;;;;;;10.02;6.25;;;;;;;6.74;92.11;101700.22;5235860;28;20123;-81
2022/12/06 16:25:14;;;;;;;4.60;3.42;;;;;;;6.58;92.42;101692.72;5250474;28;20033;-81
2022/12/06 16:27:46;;;;;;;5.28;3.40;;;;;;;6.67;93.21;101690.41;5243919;28;20236;-80
2022/12/06 16:30:29;;;;;;;6.38;3.90;;;;;;;6.63;93.73;101697.53;5245464;28;20029;-80
2022/12/06 16:33:00;;;;;;;7.22;4.28;;;;;;;6.63;93.72;101683.75;5248638;28;20033;-80
2022/12/06 16:35:32;;;;;;;5.55;4.18;;;;;;;6.60;93.30;101698.00;5241076;28;20028;-81
2022/12/06 16:38:04;;;;;;;4.15;3.22;;;;;;;6.62;93.65;101690.31;5244010;28;20393;-81
